Spaulding, California
Current Conditions -  °F | °C
As of 5:55 AM on Friday 28 Nov 2014 (Local Time) from KAAT Reporting Station
Clear Clear  
Wind Chill: 23°   Ceiling: Unl
Heat Index: 28°   Visibility: 10mi
Dew Point: 25°   Wind: 5mph
Humidity: 88%   Direction: 310°NW
Pressure: 29.95"   Gusts: NA
Location:  40.5172°N, 120.68°W
Report Text: KAAT 281355Z AUTO 31004KT 10SM CLR M02/M04 A2995 RMK AO2 SLP145 T10221039
Loading
Personal Weather Stations






























Interactive Weather Map New forecast layout! Learn more

10-Day Weather Forecast

Advertisements
Track Severe Weather on mobile